createdAt,value
2019-01-02T00:00:01.083Z,15
2019-01-02T00:02:01.182Z,16
2019-01-02T00:03:01.081Z,17
2019-01-02T00:05:01.085Z,16
2019-01-02T00:06:01.080Z,17
2019-01-02T00:08:01.117Z,16
2019-01-02T00:11:01.082Z,17
2019-01-02T00:12:01.082Z,18
2019-01-02T00:13:01.083Z,19
2019-01-02T00:15:01.109Z,19
2019-01-02T00:16:01.087Z,18
2019-01-02T00:18:01.129Z,17
2019-01-02T00:19:01.108Z,16
2019-01-02T00:20:01.081Z,17
2019-01-02T00:21:01.082Z,16
2019-01-02T00:23:01.083Z,18
2019-01-02T00:24:01.118Z,19
2019-01-02T00:25:01.087Z,18
2019-01-02T00:28:01.086Z,16
2019-01-02T00:29:01.087Z,15
2019-01-02T00:30:03.234Z,15
2019-01-02T00:31:01.089Z,16
2019-01-02T00:32:01.084Z,15
2019-01-02T00:33:01.086Z,18
2019-01-02T00:34:01.100Z,19
2019-01-02T00:35:01.697Z,18
2019-01-02T00:36:01.113Z,17
2019-01-02T00:38:01.090Z,15
2019-01-02T00:40:01.131Z,14
2019-01-02T00:41:01.129Z,15
2019-01-02T00:45:01.088Z,14
2019-01-02T00:48:01.095Z,16
2019-01-02T00:49:01.090Z,15
2019-01-02T00:50:01.088Z,17
2019-01-02T00:52:01.089Z,20
2019-01-02T00:53:01.093Z,17
2019-01-02T00:55:01.089Z,15
2019-01-02T00:56:02.225Z,16
2019-01-02T00:57:01.124Z,15
2019-01-02T01:00:01.115Z,15
2019-01-02T01:01:01.103Z,14
2019-01-02T01:04:01.117Z,15
2019-01-02T01:05:01.203Z,14
2019-01-02T01:07:01.095Z,15
2019-01-02T01:08:01.119Z,14
2019-01-02T01:10:01.091Z,15
2019-01-02T01:12:01.102Z,14
2019-01-02T01:13:01.127Z,13
2019-01-02T01:15:01.095Z,13
2019-01-02T01:16:01.090Z,15
2019-01-02T01:17:01.093Z,17
2019-01-02T01:18:01.119Z,19
2019-01-02T01:19:01.091Z,20
2019-01-02T01:20:01.095Z,21
2019-01-02T01:21:01.098Z,20
2019-01-02T01:22:01.093Z,19
2019-01-02T01:25:01.121Z,20
2019-01-02T01:26:02.233Z,19
2019-01-02T01:28:01.135Z,17
2019-01-02T01:30:01.092Z,15
2019-01-02T01:33:01.253Z,16
2019-01-02T01:35:01.096Z,18
2019-01-02T01:39:06.104Z,17
2019-01-02T01:40:01.092Z,15
2019-01-02T01:41:01.089Z,14
2019-01-02T01:43:01.094Z,13
2019-01-02T01:45:01.117Z,15
2019-01-02T01:46:01.090Z,16
2019-01-02T01:48:01.090Z,17
2019-01-02T01:49:01.127Z,18
2019-01-02T01:50:01.091Z,16
2019-01-02T01:51:01.093Z,17
2019-01-02T01:52:01.090Z,19
2019-01-02T01:53:01.109Z,20
2019-01-02T01:55:01.117Z,22
2019-01-02T01:56:01.092Z,20
2019-01-02T01:57:01.091Z,18
2019-01-02T01:58:01.090Z,16
2019-01-02T01:59:01.092Z,15
2019-01-02T02:00:01.121Z,14
2019-01-02T02:03:01.158Z,15
2019-01-02T02:04:01.099Z,16
2019-01-02T02:05:01.126Z,17
2019-01-02T02:06:01.092Z,16
2019-01-02T02:07:01.119Z,17
2019-01-02T02:09:01.097Z,16
2019-01-02T02:10:01.096Z,17
2019-01-02T02:13:01.187Z,16
2019-01-02T02:15:01.094Z,13
2019-01-02T02:16:01.095Z,14
2019-01-02T02:17:01.120Z,15
2019-01-02T02:18:01.095Z,16
2019-01-02T02:21:01.090Z,18
2019-01-02T02:22:01.811Z,17
2019-01-02T02:24:01.084Z,16
2019-01-02T02:25:01.083Z,15
2019-01-02T02:29:01.112Z,17
2019-01-02T02:30:01.090Z,18
2019-01-02T02:33:01.210Z,20
2019-01-02T02:34:01.084Z,18
2019-01-02T02:36:01.089Z,17
2019-01-02T02:37:01.084Z,16
2019-01-02T02:38:01.085Z,14
2019-01-02T02:41:01.186Z,13
2019-01-02T02:42:01.084Z,15
2019-01-02T02:43:02.227Z,17
2019-01-02T02:44:01.085Z,18
2019-01-02T02:45:01.087Z,17
2019-01-02T02:46:01.091Z,19
2019-01-02T02:47:01.086Z,18
2019-01-02T02:48:01.085Z,16
2019-01-02T02:49:01.087Z,17
2019-01-02T02:50:01.089Z,19
2019-01-02T02:52:01.149Z,17
2019-01-02T02:54:01.084Z,14
2019-01-02T02:55:01.085Z,13
2019-01-02T02:56:02.122Z,14
2019-01-02T02:57:01.087Z,15
2019-01-02T02:58:01.084Z,16
2019-01-02T02:59:01.085Z,17
2019-01-02T03:00:01.088Z,17
2019-01-02T03:01:01.086Z,15
2019-01-02T03:02:01.087Z,14
2019-01-02T03:03:01.083Z,15
2019-01-02T03:04:01.086Z,16
2019-01-02T03:05:01.101Z,17
2019-01-02T03:08:01.085Z,15
2019-01-02T03:09:01.083Z,14
2019-01-02T03:10:01.095Z,15
2019-01-02T03:11:01.120Z,16
2019-01-02T03:13:02.386Z,17
2019-01-02T03:15:01.133Z,15
2019-01-02T03:16:01.113Z,14
2019-01-02T03:17:01.489Z,15
2019-01-02T03:18:01.086Z,16
2019-01-02T03:21:01.173Z,17
2019-01-02T03:22:01.085Z,16
2019-01-02T03:23:01.089Z,15
2019-01-02T03:24:01.086Z,16
2019-01-02T03:25:01.213Z,15
2019-01-02T03:26:01.109Z,16
2019-01-02T03:27:01.084Z,15
2019-01-02T03:29:01.957Z,16
2019-01-02T03:30:01.089Z,18
2019-01-02T03:32:01.150Z,19
2019-01-02T03:33:01.087Z,18
2019-01-02T03:35:01.117Z,16
2019-01-02T03:37:01.085Z,17
2019-01-02T03:38:01.084Z,18
2019-01-02T03:39:01.087Z,16
2019-01-02T03:40:01.111Z,18
2019-01-02T03:42:01.085Z,17
2019-01-02T03:43:01.084Z,14
2019-01-02T03:45:01.114Z,13
2019-01-02T03:47:01.908Z,14
2019-01-02T03:49:01.085Z,16
2019-01-02T03:50:01.110Z,18
2019-01-02T03:51:01.086Z,20
2019-01-02T03:53:01.086Z,21
2019-01-02T03:54:01.086Z,19
2019-01-02T03:55:01.116Z,15
2019-01-02T03:56:01.086Z,14
2019-01-02T03:57:01.090Z,13
2019-01-02T04:00:01.115Z,17
2019-01-02T04:05:01.194Z,15
2019-01-02T04:07:01.091Z,16
2019-01-02T04:08:01.094Z,17
2019-01-02T04:09:01.088Z,16
2019-01-02T04:10:01.088Z,17
2019-01-02T04:13:01.153Z,15
2019-01-02T04:14:01.092Z,16
2019-01-02T04:15:01.090Z,15
2019-01-02T04:17:01.090Z,14
2019-01-02T04:18:01.091Z,15
2019-01-02T04:19:01.090Z,16
2019-01-02T04:22:01.110Z,18
2019-01-02T04:24:01.090Z,17
2019-01-02T04:27:01.090Z,16
2019-01-02T04:28:01.089Z,15
2019-01-02T04:30:01.092Z,14
2019-01-02T04:31:01.090Z,13
2019-01-02T04:32:01.127Z,14
2019-01-02T04:34:01.089Z,16
2019-01-02T04:35:01.094Z,18
2019-01-02T04:36:01.095Z,19
2019-01-02T04:37:01.125Z,20
2019-01-02T04:39:01.525Z,18
2019-01-02T04:40:01.093Z,17
2019-01-02T04:41:01.090Z,18
2019-01-02T04:42:01.127Z,16
2019-01-02T04:43:01.092Z,17
2019-01-02T04:44:01.091Z,18
2019-01-02T04:45:01.097Z,16
2019-01-02T04:49:01.116Z,17
2019-01-02T04:50:01.092Z,18
2019-01-02T04:51:01.093Z,17
2019-01-02T04:52:01.094Z,19
2019-01-02T04:53:01.131Z,18
2019-01-02T04:54:01.093Z,17
2019-01-02T04:57:01.090Z,16
2019-01-02T04:58:01.127Z,17
2019-01-02T04:59:01.101Z,16
2019-01-02T05:00:01.091Z,15
2019-01-02T05:02:01.156Z,14
2019-01-02T05:03:01.116Z,13
2019-01-02T05:04:01.099Z,14
2019-01-02T05:05:01.094Z,15
2019-01-02T05:06:01.091Z,14
2019-01-02T05:07:01.116Z,15
2019-01-02T05:08:01.757Z,16
2019-01-02T05:09:01.092Z,17
2019-01-02T05:11:01.091Z,19
2019-01-02T05:13:01.121Z,17
2019-01-02T05:14:01.090Z,15
2019-01-02T05:15:01.090Z,15
2019-01-02T05:16:01.330Z,14
2019-01-02T05:17:01.120Z,16
2019-01-02T05:19:01.091Z,17
2019-01-02T05:20:01.095Z,18
2019-01-02T05:23:01.181Z,19
2019-01-02T05:27:01.094Z,16
2019-01-02T05:28:01.097Z,17
2019-01-02T05:30:01.096Z,15
2019-01-02T05:33:01.118Z,13
2019-01-02T05:34:01.093Z,14
2019-01-02T05:36:01.116Z,13
2019-01-02T05:37:01.109Z,15
2019-01-02T05:38:01.093Z,16
2019-01-02T05:39:01.092Z,15
2019-01-02T05:41:01.139Z,17
2019-01-02T05:43:01.091Z,16
2019-01-02T05:44:01.090Z,18
2019-01-02T05:45:01.094Z,18
2019-01-02T05:46:01.127Z,17
2019-01-02T05:47:01.088Z,18
2019-01-02T05:48:01.090Z,20
2019-01-02T05:49:01.300Z,19
2019-01-02T05:50:01.089Z,21
2019-01-02T05:51:01.116Z,19
2019-01-02T05:52:01.091Z,18
2019-01-02T05:53:01.088Z,17
2019-01-02T05:54:01.088Z,16
2019-01-02T05:55:01.106Z,15
2019-01-02T05:56:01.119Z,14
2019-01-02T06:00:01.092Z,13
2019-01-02T06:01:01.116Z,14
2019-01-02T06:02:02.216Z,15
2019-01-02T06:03:01.087Z,14
2019-01-02T06:04:01.088Z,15
2019-01-02T06:05:01.089Z,17
2019-01-02T06:07:01.090Z,16
2019-01-02T06:08:01.123Z,17
2019-01-02T06:10:01.088Z,18
2019-01-02T06:11:01.087Z,19
2019-01-02T06:12:01.088Z,18
2019-01-02T06:14:01.168Z,17
2019-01-02T06:15:01.088Z,14
2019-01-02T06:16:01.088Z,13
2019-01-02T06:19:01.123Z,14
2019-01-02T06:21:01.151Z,15
2019-01-02T06:22:01.086Z,17
2019-01-02T06:26:01.120Z,19
2019-01-02T06:27:01.088Z,18
2019-01-02T06:28:01.088Z,17
2019-01-02T06:29:01.090Z,18
2019-01-02T06:30:01.093Z,19
2019-01-02T06:31:01.092Z,18
2019-01-02T06:34:01.115Z,16
2019-01-02T06:35:02.116Z,14
2019-01-02T06:36:01.092Z,13
2019-01-02T06:37:01.092Z,14
2019-01-02T06:38:01.096Z,15
2019-01-02T06:39:01.121Z,16
2019-01-02T06:40:01.126Z,17
2019-01-02T06:42:01.159Z,15
2019-01-02T06:43:01.093Z,14
2019-01-02T06:45:01.122Z,13
2019-01-02T06:47:01.100Z,15
2019-01-02T06:49:01.112Z,16
2019-01-02T06:50:01.127Z,18
2019-01-02T06:51:01.096Z,19
2019-01-02T06:52:01.098Z,17
2019-01-02T06:54:01.106Z,18
2019-01-02T06:55:01.080Z,17
2019-01-02T06:56:01.145Z,15
2019-01-02T06:57:01.145Z,13
2019-01-02T06:58:01.081Z,14
2019-01-02T07:00:02.353Z,13
2019-01-02T07:02:01.149Z,14
2019-01-02T07:04:01.216Z,15
2019-01-02T07:05:01.151Z,16
2019-01-02T07:06:01.090Z,17
2019-01-02T07:07:01.086Z,18
2019-01-02T07:09:01.087Z,17
2019-01-02T07:11:01.086Z,18
2019-01-02T07:12:01.090Z,17
2019-01-02T07:13:01.090Z,15
2019-01-02T07:14:01.087Z,16
2019-01-02T07:15:01.091Z,16
2019-01-02T07:16:01.095Z,13
2019-01-02T07:20:01.092Z,16
2019-01-02T07:21:01.098Z,17
2019-01-02T07:22:01.091Z,18
2019-01-02T07:24:01.121Z,19
2019-01-02T07:25:01.109Z,17
2019-01-02T07:26:01.095Z,16
2019-01-02T07:29:01.090Z,14
2019-01-02T07:30:01.103Z,14
2019-01-02T07:31:01.090Z,15
2019-01-02T07:33:01.118Z,14
2019-01-02T07:34:01.091Z,15
2019-01-02T07:35:02.112Z,16
2019-01-02T07:36:01.088Z,14
2019-01-02T07:37:01.234Z,15
2019-01-02T07:39:01.086Z,17
2019-01-02T07:40:01.221Z,18
2019-01-02T07:42:01.216Z,19
2019-01-02T07:44:01.094Z,18
2019-01-02T07:45:01.087Z,17
2019-01-02T07:47:01.171Z,14
2019-01-02T07:49:01.087Z,13
2019-01-02T07:51:01.088Z,14
2019-01-02T07:52:01.784Z,16
2019-01-02T07:53:01.086Z,14
2019-01-02T07:55:01.089Z,16
2019-01-02T07:56:01.123Z,14
2019-01-02T07:57:01.090Z,16
2019-01-02T07:58:01.095Z,18
2019-01-02T07:59:01.180Z,17
2019-01-02T08:00:01.091Z,17
2019-01-02T08:01:01.133Z,18
2019-01-02T08:02:01.092Z,17
2019-01-02T08:03:01.097Z,16
2019-01-02T08:04:06.091Z,17
2019-01-02T08:06:01.090Z,16
2019-01-02T08:10:01.095Z,15
2019-01-02T08:11:01.093Z,16
2019-01-02T08:12:02.477Z,17
2019-01-02T08:14:01.132Z,19
2019-01-02T08:15:03.132Z,19
2019-01-02T08:16:01.099Z,20
2019-01-02T08:18:01.098Z,19
2019-01-02T08:19:06.101Z,16
2019-01-02T08:23:01.161Z,17
2019-01-02T08:24:06.108Z,16
2019-01-02T08:25:01.102Z,15
2019-01-02T08:26:01.103Z,14
2019-01-02T08:28:01.082Z,12
2019-01-02T08:30:01.097Z,13
2019-01-02T08:31:01.082Z,15
2019-01-02T08:32:01.086Z,17
2019-01-02T08:33:01.084Z,19
2019-01-02T08:36:01.081Z,18
2019-01-02T08:37:01.084Z,16
2019-01-02T08:40:01.089Z,17
2019-01-02T08:42:01.146Z,19
2019-01-02T08:43:01.083Z,20
2019-01-02T08:45:01.081Z,20
2019-01-02T08:46:01.082Z,18
2019-01-02T08:47:01.886Z,17
2019-01-02T08:48:01.359Z,16
2019-01-02T08:49:01.081Z,15
2019-01-02T08:50:02.163Z,14
2019-01-02T08:51:01.117Z,17
2019-01-02T08:52:01.084Z,16
2019-01-02T08:54:01.081Z,18
2019-01-02T08:55:01.118Z,19
2019-01-02T08:56:01.085Z,18
2019-01-02T08:57:01.081Z,20
2019-01-02T08:59:01.087Z,18
2019-01-02T09:00:01.083Z,18
2019-01-02T09:03:01.212Z,17
2019-01-02T09:04:01.083Z,16
2019-01-02T09:06:01.114Z,15
2019-01-02T09:07:01.084Z,14
2019-01-02T09:08:02.098Z,15
2019-01-02T09:10:01.082Z,17
2019-01-02T09:11:01.118Z,19
2019-01-02T09:13:01.084Z,18
2019-01-02T09:15:01.084Z,16
2019-01-02T09:16:01.110Z,14
2019-01-02T09:17:01.083Z,15
2019-01-02T09:18:01.083Z,16
2019-01-02T09:19:01.084Z,17
2019-01-02T09:20:01.088Z,18
2019-01-02T09:21:01.253Z,17
2019-01-02T09:22:01.087Z,16
2019-01-02T09:23:01.095Z,15
2019-01-02T09:24:01.084Z,13
2019-01-02T09:25:01.127Z,14
2019-01-02T09:26:01.112Z,17
2019-01-02T09:27:01.087Z,16
2019-01-02T09:29:01.085Z,19
2019-01-02T09:30:01.090Z,16
2019-01-02T09:31:01.112Z,15
2019-01-02T09:32:01.085Z,16
2019-01-02T09:33:01.084Z,17
2019-01-02T09:34:02.105Z,15
2019-01-02T09:35:01.088Z,16
2019-01-02T09:37:01.085Z,17
2019-01-02T09:38:01.089Z,16
2019-01-02T09:39:01.086Z,18
2019-01-02T09:40:01.086Z,17
2019-01-02T09:41:01.111Z,16
2019-01-02T09:43:01.085Z,15
2019-01-02T09:44:01.086Z,12
2019-01-02T09:45:06.099Z,13
2019-01-02T09:47:06.092Z,12
2019-01-02T09:48:01.132Z,13
2019-01-02T09:50:01.199Z,14
2019-01-02T09:51:01.090Z,15
2019-01-02T09:52:01.089Z,17
2019-01-02T09:53:01.152Z,15
2019-01-02T09:58:01.089Z,18
2019-01-02T09:59:01.885Z,21
2019-01-02T10:00:01.092Z,20
2019-01-02T10:02:01.149Z,19
2019-01-02T10:04:01.090Z,17
2019-01-02T10:05:06.091Z,16
2019-01-02T10:06:01.086Z,15
2019-01-02T10:07:01.085Z,16
2019-01-02T10:08:01.087Z,15
2019-01-02T10:09:01.087Z,17
2019-01-02T10:10:01.091Z,20
2019-01-02T10:11:01.087Z,21
2019-01-02T10:12:01.103Z,22
2019-01-02T10:13:01.089Z,20
2019-01-02T10:14:01.090Z,21
2019-01-02T10:15:06.103Z,18
2019-01-02T10:16:01.089Z,16
2019-01-02T10:17:01.088Z,15
2019-01-02T10:20:01.116Z,17
2019-01-02T10:21:01.085Z,20
2019-01-02T10:24:01.090Z,18
2019-01-02T10:25:01.134Z,16
2019-01-02T10:26:01.089Z,15
2019-01-02T10:28:01.089Z,14
2019-01-02T10:29:01.088Z,15
2019-01-02T10:30:01.086Z,16
2019-01-02T10:32:01.120Z,15
2019-01-02T10:34:01.093Z,13
2019-01-02T10:35:01.088Z,12
2019-01-02T10:37:01.088Z,14
2019-01-02T10:38:01.089Z,15
2019-01-02T10:39:01.087Z,16
2019-01-02T10:41:01.635Z,17
2019-01-02T10:42:01.088Z,15
2019-01-02T10:43:01.085Z,13
2019-01-02T10:45:01.110Z,15
2019-01-02T10:48:01.126Z,17
2019-01-02T10:49:01.086Z,18
2019-01-02T10:50:01.092Z,17
2019-01-02T10:51:01.087Z,16
2019-01-02T10:53:01.130Z,15
2019-01-02T10:55:01.089Z,14
2019-01-02T10:56:01.088Z,17
2019-01-02T10:59:01.089Z,16
2019-01-02T11:00:01.101Z,15
2019-01-02T11:01:01.090Z,14
2019-01-02T11:02:01.091Z,15
2019-01-02T11:04:01.118Z,14
2019-01-02T11:05:01.089Z,15
2019-01-02T11:06:01.089Z,13
2019-01-02T11:07:01.093Z,12
2019-01-02T11:09:01.125Z,13
2019-01-02T11:11:01.216Z,15
2019-01-02T11:12:01.087Z,17
2019-01-02T11:15:01.088Z,19
2019-01-02T11:16:02.178Z,20
2019-01-02T11:17:01.094Z,18
2019-01-02T11:18:01.087Z,17
2019-01-02T11:20:01.118Z,15
2019-01-02T11:21:01.092Z,13
2019-01-02T11:22:01.093Z,14
2019-01-02T11:25:01.127Z,15
2019-01-02T11:26:01.087Z,14
2019-01-02T11:27:01.088Z,13
2019-01-02T11:28:01.090Z,14
2019-01-02T11:29:06.091Z,15
2019-01-02T11:30:01.097Z,17
2019-01-02T11:32:01.161Z,18
2019-01-02T11:33:01.090Z,16
2019-01-02T11:35:01.133Z,15
2019-01-02T11:36:01.096Z,17
2019-01-02T11:37:01.093Z,16
2019-01-02T11:38:01.094Z,18
2019-01-02T11:40:01.117Z,17
2019-01-02T11:41:01.101Z,16
2019-01-02T11:42:01.094Z,17
2019-01-02T11:44:01.120Z,16
2019-01-02T11:45:01.097Z,18
2019-01-02T11:46:02.273Z,17
2019-01-02T11:47:01.101Z,18
2019-01-02T11:48:01.124Z,20
2019-01-02T11:50:01.105Z,19
2019-01-02T11:52:01.094Z,17
2019-01-02T11:53:01.120Z,16
2019-01-02T11:54:01.095Z,17
2019-01-02T11:56:01.100Z,18
2019-01-02T11:57:01.099Z,20
2019-01-02T11:58:01.121Z,17
2019-01-02T11:59:01.094Z,18
2019-01-02T12:00:01.099Z,18
2019-01-02T12:01:01.095Z,16
2019-01-02T12:03:02.059Z,17
2019-01-02T12:04:01.098Z,16
2019-01-02T12:05:01.100Z,17
2019-01-02T12:06:01.096Z,18
2019-01-02T12:08:01.110Z,20
2019-01-02T12:12:01.086Z,19
2019-01-02T12:13:01.111Z,17
2019-01-02T12:14:01.080Z,16
2019-01-02T12:15:01.086Z,16
2019-01-02T12:16:01.085Z,14
2019-01-02T12:19:01.111Z,15
2019-01-02T12:20:01.090Z,16
2019-01-02T12:21:01.083Z,17
2019-01-02T12:25:01.083Z,18
2019-01-02T12:26:01.083Z,16
2019-01-02T12:27:01.091Z,17
2019-01-02T12:28:01.083Z,18
2019-01-02T12:29:01.087Z,17
2019-01-02T12:30:01.085Z,16
2019-01-02T12:33:01.212Z,17
2019-01-02T12:34:01.125Z,16
2019-01-02T12:35:01.084Z,15
2019-01-02T12:36:01.085Z,16
2019-01-02T12:37:01.085Z,17
2019-01-02T12:38:01.087Z,14
2019-01-02T12:39:01.083Z,16
2019-01-02T12:41:01.149Z,17
2019-01-02T12:42:01.086Z,16
2019-01-02T12:43:01.087Z,17
2019-01-02T12:44:01.086Z,15
2019-01-02T12:45:01.087Z,17
2019-01-02T12:46:01.085Z,16
2019-01-02T12:47:01.087Z,17
2019-01-02T12:48:01.083Z,18
2019-01-02T12:49:01.083Z,21
2019-01-02T12:50:01.088Z,18
2019-01-02T12:51:01.083Z,17
2019-01-02T12:53:01.082Z,16
2019-01-02T12:54:01.083Z,15
2019-01-02T12:56:01.116Z,16
2019-01-02T12:57:01.083Z,15
2019-01-02T13:00:01.102Z,16
2019-01-02T13:01:01.086Z,17
2019-01-02T13:02:01.083Z,19
2019-01-02T13:06:01.082Z,17
2019-01-02T13:08:01.080Z,15
2019-01-02T13:12:01.145Z,16
2019-01-02T13:15:01.107Z,15
2019-01-02T13:18:01.085Z,16
2019-01-02T13:19:01.114Z,18
2019-01-02T13:23:01.210Z,17
2019-01-02T13:26:01.108Z,16
2019-01-02T13:27:01.081Z,17
2019-01-02T13:28:01.085Z,16
2019-01-02T13:29:01.082Z,14
2019-01-02T13:30:01.084Z,14
2019-01-02T13:31:01.115Z,16
2019-01-02T13:33:01.080Z,17
2019-01-02T13:36:01.080Z,16
2019-01-02T13:40:01.082Z,17
2019-01-02T13:41:01.080Z,18
2019-01-02T13:42:01.085Z,19
2019-01-02T13:43:01.084Z,18
2019-01-02T13:44:01.082Z,17
2019-01-02T13:45:01.083Z,16
2019-01-02T13:46:01.082Z,15
2019-01-02T13:47:01.084Z,13
2019-01-02T13:49:01.085Z,14
2019-01-02T13:51:01.178Z,16
2019-01-02T13:52:01.090Z,17
2019-01-02T13:53:01.086Z,16
2019-01-02T13:54:01.087Z,17
2019-01-02T13:56:01.088Z,15
2019-01-02T13:57:01.144Z,14
2019-01-02T13:59:01.089Z,13
2019-01-02T14:00:01.089Z,12
2019-01-02T14:01:01.089Z,14
2019-01-02T14:02:01.256Z,15
2019-01-02T14:03:01.095Z,17
2019-01-02T14:04:01.091Z,18
2019-01-02T14:05:01.090Z,19
2019-01-02T14:06:01.096Z,17
2019-01-02T14:09:01.479Z,16
2019-01-02T14:10:01.116Z,17
2019-01-02T14:11:01.093Z,18
2019-01-02T14:12:01.098Z,17
2019-01-02T14:13:01.105Z,15
2019-01-02T14:15:06.104Z,14
2019-01-02T14:16:01.093Z,15
2019-01-02T14:17:01.094Z,16
2019-01-02T14:18:01.104Z,17
2019-01-02T14:19:01.093Z,18
2019-01-02T14:20:01.119Z,17
2019-01-02T14:21:01.094Z,18
2019-01-02T14:22:01.092Z,17
2019-01-02T14:26:01.100Z,16
2019-01-02T14:28:01.094Z,17
2019-01-02T14:30:01.111Z,18
2019-01-02T14:31:01.094Z,19
2019-01-02T14:32:01.700Z,18
2019-01-02T14:34:01.099Z,19
2019-01-02T14:36:01.095Z,18
2019-01-02T14:37:01.095Z,19
2019-01-02T14:38:01.096Z,18
2019-01-02T14:39:01.098Z,15
2019-01-02T14:42:01.209Z,14
2019-01-02T14:43:01.080Z,15
2019-01-02T14:44:01.081Z,17
2019-01-02T14:45:01.135Z,18
2019-01-02T14:48:01.087Z,16
2019-01-02T14:49:01.081Z,14
2019-01-02T14:50:01.081Z,13
2019-01-02T14:51:01.084Z,14
2019-01-02T14:52:01.114Z,13
2019-01-02T14:53:01.085Z,14
2019-01-02T14:54:01.223Z,16
2019-01-02T14:55:01.093Z,18
2019-01-02T14:57:01.120Z,19
2019-01-02T14:58:01.086Z,17
2019-01-02T15:00:01.087Z,15
2019-01-02T15:02:01.212Z,16
2019-01-02T15:03:01.090Z,18
2019-01-02T15:05:01.086Z,20
2019-01-02T15:06:01.085Z,19
2019-01-02T15:07:01.086Z,20
2019-01-02T15:08:01.092Z,19
2019-01-02T15:09:01.089Z,21
2019-01-02T15:10:01.087Z,19
2019-01-02T15:12:01.088Z,16
2019-01-02T15:14:01.089Z,14
2019-01-02T15:15:01.090Z,15
2019-01-02T15:16:01.209Z,16
2019-01-02T15:17:01.088Z,17
2019-01-02T15:18:01.088Z,16
2019-01-02T15:21:01.129Z,17
2019-01-02T15:22:04.805Z,18
2019-01-02T15:23:01.088Z,20
2019-01-02T15:25:01.092Z,19
2019-01-02T15:26:06.096Z,18
2019-01-02T15:27:01.094Z,17
2019-01-02T15:28:01.183Z,16
2019-01-02T15:30:01.108Z,16
2019-01-02T15:31:06.106Z,18
2019-01-02T15:32:01.095Z,19
2019-01-02T15:33:02.205Z,20
2019-01-02T15:34:01.094Z,18
2019-01-02T15:35:01.096Z,17
2019-01-02T15:36:06.108Z,16
2019-01-02T15:37:01.095Z,14
2019-01-02T15:39:01.096Z,16
2019-01-02T15:40:01.096Z,17
2019-01-02T15:41:06.106Z,16
2019-01-02T15:42:01.113Z,18
2019-01-02T15:43:01.093Z,17
2019-01-02T15:44:01.098Z,15
2019-01-02T15:45:01.128Z,15
2019-01-02T15:46:02.176Z,17
2019-01-02T15:48:01.093Z,19
2019-01-02T15:49:01.095Z,20
2019-01-02T15:51:01.097Z,19
2019-01-02T15:52:01.096Z,18
2019-01-02T15:54:01.097Z,19
2019-01-02T15:56:01.110Z,18
2019-01-02T15:57:01.098Z,17
2019-01-02T15:58:01.094Z,16
2019-01-02T15:59:01.098Z,14
2019-01-02T16:00:01.110Z,15
2019-01-02T16:03:01.093Z,16
2019-01-02T16:04:01.093Z,18
2019-01-02T16:05:01.105Z,19
2019-01-02T16:06:01.094Z,20
2019-01-02T16:08:01.093Z,19
2019-01-02T16:09:01.095Z,18
2019-01-02T16:12:01.157Z,17
2019-01-02T16:13:01.091Z,18
2019-01-02T16:15:01.107Z,18
2019-01-02T16:16:02.034Z,17
2019-01-02T16:17:01.095Z,16
2019-01-02T16:18:01.098Z,15
2019-01-02T16:19:01.094Z,14
2019-01-02T16:20:06.280Z,13
2019-01-02T16:22:01.222Z,14
2019-01-02T16:23:01.093Z,15
2019-01-02T16:26:06.093Z,16
2019-01-02T16:28:01.262Z,17
2019-01-02T16:29:01.104Z,18
2019-01-02T16:30:01.098Z,16
2019-01-02T16:32:01.977Z,15
2019-01-02T16:33:01.097Z,14
2019-01-02T16:34:01.109Z,15
2019-01-02T16:35:01.092Z,17
2019-01-02T16:36:01.093Z,16
2019-01-02T16:38:01.093Z,17
2019-01-02T16:39:01.092Z,16
2019-01-02T16:40:01.093Z,14
2019-01-02T16:41:01.094Z,15
2019-01-02T16:42:01.122Z,16
2019-01-02T16:45:01.079Z,16
2019-01-02T16:46:01.083Z,17
2019-01-02T16:47:01.080Z,18
2019-01-02T16:48:01.081Z,19
2019-01-02T16:49:01.079Z,18
2019-01-02T16:50:01.082Z,17
2019-01-02T16:51:01.080Z,18
2019-01-02T16:52:01.080Z,16
2019-01-02T16:55:01.081Z,18
2019-01-02T16:56:01.082Z,17
2019-01-02T16:57:01.082Z,16
2019-01-02T16:58:01.583Z,15
2019-01-02T17:00:01.091Z,15
2019-01-02T17:02:01.145Z,17
2019-01-02T17:03:01.082Z,16
2019-01-02T17:04:01.083Z,17
2019-01-02T17:05:01.087Z,16
2019-01-02T17:07:01.082Z,15
2019-01-02T17:09:01.081Z,16
2019-01-02T17:10:01.110Z,15
2019-01-02T17:11:02.051Z,16
2019-01-02T17:12:01.081Z,17
2019-01-02T17:13:01.083Z,18
2019-01-02T17:14:01.094Z,20
2019-01-02T17:15:01.088Z,19
2019-01-02T17:17:01.108Z,18
2019-01-02T17:18:01.082Z,17
2019-01-02T17:19:01.082Z,16
2019-01-02T17:20:01.082Z,17
2019-01-02T17:21:01.084Z,16
2019-01-02T17:22:01.085Z,17
2019-01-02T17:23:01.084Z,15
2019-01-02T17:24:01.910Z,16
2019-01-02T17:26:01.082Z,17
2019-01-02T17:27:01.086Z,19
2019-01-02T17:28:01.081Z,20
2019-01-02T17:29:01.090Z,18
2019-01-02T17:30:01.082Z,16
2019-01-02T17:31:01.082Z,15
2019-01-02T17:32:01.356Z,13
2019-01-02T17:33:01.079Z,14
2019-01-02T17:34:01.082Z,16
2019-01-02T17:36:01.083Z,18
2019-01-02T17:37:01.083Z,17
2019-01-02T17:38:01.084Z,14
2019-01-02T17:43:01.084Z,16
2019-01-02T17:44:01.082Z,15
2019-01-02T17:45:01.083Z,15
2019-01-02T17:47:01.084Z,16
2019-01-02T17:50:01.149Z,17
2019-01-02T17:51:01.085Z,19
2019-01-02T17:53:01.090Z,20
2019-01-02T17:54:01.090Z,21
2019-01-02T17:55:01.156Z,20
2019-01-02T17:56:01.087Z,18
2019-01-02T17:57:01.089Z,19
2019-01-02T17:58:01.090Z,17
2019-01-02T18:00:01.099Z,16
2019-01-02T18:01:01.089Z,17
2019-01-02T18:02:01.087Z,18
2019-01-02T18:06:01.116Z,17
2019-01-02T18:07:01.091Z,15
2019-01-02T18:11:01.122Z,16
2019-01-02T18:12:01.097Z,17
2019-01-02T18:13:01.089Z,20
2019-01-02T18:14:01.088Z,19
2019-01-02T18:15:01.093Z,19
2019-01-02T18:16:01.094Z,18
2019-01-02T18:17:01.134Z,16
2019-01-02T18:18:01.088Z,15
2019-01-02T18:22:01.116Z,17
2019-01-02T18:23:01.090Z,15
2019-01-02T18:25:01.092Z,16
2019-01-02T18:26:01.092Z,15
2019-01-02T18:27:01.135Z,14
2019-01-02T18:28:01.090Z,17
2019-01-02T18:30:01.098Z,16
2019-01-02T18:32:01.187Z,17
2019-01-02T18:33:01.095Z,15
2019-01-02T18:37:01.128Z,17
2019-01-02T18:38:01.093Z,18
2019-01-02T18:39:02.141Z,19
2019-01-02T18:40:01.095Z,20
2019-01-02T18:41:01.123Z,19
2019-01-02T18:42:01.096Z,16
2019-01-02T18:43:01.094Z,15
2019-01-02T18:44:01.094Z,13
2019-01-02T18:45:01.095Z,12
2019-01-02T18:46:01.124Z,15
2019-01-02T18:47:01.098Z,16
2019-01-02T18:48:01.094Z,17
2019-01-02T18:51:01.189Z,15
2019-01-02T18:52:01.093Z,13
2019-01-02T18:53:01.093Z,12
2019-01-02T18:55:01.100Z,13
2019-01-02T18:56:01.124Z,12
2019-01-02T18:57:01.101Z,13
2019-01-02T18:58:01.093Z,14
2019-01-02T18:59:01.092Z,16
2019-01-02T19:00:05.951Z,15
2019-01-02T19:05:01.221Z,16
2019-01-02T19:06:01.092Z,15
2019-01-02T19:07:01.128Z,14
2019-01-02T19:08:01.092Z,13
2019-01-02T19:12:00.353Z,0
2019-01-02T19:13:00.379Z,8
2019-01-02T19:14:00.345Z,11
2019-01-02T19:15:00.355Z,13
2019-01-02T19:16:00.368Z,12
2019-01-02T19:17:01.038Z,15
2019-01-02T19:18:00.352Z,17
2019-01-02T19:19:00.369Z,16
2019-01-02T19:20:00.348Z,14
2019-01-02T19:21:00.336Z,16
2019-01-02T19:22:00.422Z,15
2019-01-02T19:23:00.387Z,14
2019-01-02T19:24:00.588Z,15
2019-01-02T19:25:00.355Z,14
2019-01-02T19:28:00.349Z,13
2019-01-02T19:30:00.911Z,15
2019-01-02T19:31:00.657Z,16
2019-01-02T19:32:00.527Z,15
2019-01-02T19:33:00.855Z,16
2019-01-02T19:34:00.350Z,17
2019-01-02T19:35:00.402Z,16
2019-01-02T19:36:00.348Z,15
2019-01-02T19:37:00.347Z,16
2019-01-02T19:38:01.700Z,15
2019-01-02T19:39:00.494Z,14
2019-01-02T19:40:00.404Z,15
2019-01-02T19:41:00.378Z,16
2019-01-02T19:42:00.577Z,15
2019-01-02T19:45:00.387Z,14
2019-01-02T19:46:00.938Z,15
2019-01-02T19:50:00.342Z,16
2019-01-02T19:51:02.031Z,15
2019-01-02T19:52:00.379Z,17
2019-01-02T19:54:00.756Z,19
2019-01-02T19:55:00.670Z,18
2019-01-02T19:57:00.332Z,17
2019-01-02T19:58:00.336Z,18
2019-01-02T19:59:00.346Z,17
2019-01-02T20:00:00.551Z,17
2019-01-02T20:01:00.359Z,16
2019-01-02T20:03:00.928Z,14
2019-01-02T20:05:00.364Z,15
2019-01-02T20:06:00.359Z,18
2019-01-02T20:08:01.804Z,19
2019-01-02T20:09:00.362Z,20
2019-01-02T20:10:00.367Z,19
2019-01-02T20:11:00.368Z,17
2019-01-02T20:12:01.060Z,18
2019-01-02T20:15:00.390Z,16
2019-01-02T20:16:00.729Z,17
2019-01-02T20:17:00.322Z,16